Time;durP1;ratioP1;P1;durP2;ratioP2;P2;SDS_P1;SDS_P2;PMS_P1;PMS_P2;Temp;Humidity;BMP_temperature;BMP_pressure;BME280_temperature;BME280_humidity;BME280_pressure;Samples;Min_cycle;Max_cycle;Signal;HPM_P1;HPM_P2
2022/11/05 00:10:30;;;;;;;1.85;0.75;;;8.60;99.90;;;;;;4958603;29;20155;-70
2022/11/05 00:18:26;;;;;;;3.63;0.73;;;8.60;99.90;;;;;;4958831;29;20090;-70
2022/11/05 00:20:52;;;;;;;0.82;0.63;;;8.70;99.90;;;;;;4941796;29;20027;-68
2022/11/05 00:26:06;;;;;;;1.05;0.80;;;8.70;99.90;;;;;;4957608;29;20038;-68
2022/11/05 00:28:32;;;;;;;1.15;1.05;;;8.70;99.90;;;;;;4940460;29;20483;-68
2022/11/05 00:31:12;;;;;;;0.70;0.70;;;8.70;99.90;;;;;;4957780;29;20131;-68
2022/11/05 00:33:39;;;;;;;1.98;0.82;;;8.70;99.90;;;;;;4958063;29;20023;-68
2022/11/05 00:36:06;;;;;;;0.77;0.63;;;8.70;99.90;;;;;;4940045;29;20083;-68
2022/11/05 00:38:33;;;;;;;7.45;1.00;;;8.80;99.90;;;;;;4957928;29;20035;-68
2022/11/05 00:40:59;;;;;;;2.00;0.68;;;8.70;99.90;;;;;;4957632;29;20384;-68
2022/11/05 00:46:09;;;;;;;0.90;0.63;;;8.70;99.90;;;;;;4958074;29;20086;-68
2022/11/05 00:51:20;;;;;;;2.80;0.75;;;8.70;99.90;;;;;;4957394;29;20101;-68
2022/11/05 00:53:45;;;;;;;0.80;0.60;;;8.60;99.90;;;;;;4958793;29;20519;-69
2022/11/05 00:56:11;;;;;;;1.48;0.75;;;8.70;99.90;;;;;;4958178;29;20038;-71
2022/11/05 00:58:36;;;;;;;2.85;0.95;;;8.70;99.90;;;;;;4958422;29;20379;-68
2022/11/05 01:01:03;;;;;;;1.70;0.82;;;8.60;99.90;;;;;;4957561;29;20495;-68
2022/11/05 01:03:34;;;;;;;1.70;0.65;;;8.70;99.90;;;;;;4940481;29;20038;-73
2022/11/05 01:06:10;;;;;;;1.15;0.65;;;8.70;99.90;;;;;;4959560;29;20031;-69
2022/11/05 01:08:36;;;;;;;2.55;1.13;;;8.70;99.90;;;;;;4959610;29;20074;-69
2022/11/05 01:11:12;;;;;;;1.02;0.90;;;8.70;99.90;;;;;;4958461;29;20435;-69
2022/11/05 01:13:38;;;;;;;1.08;0.98;;;8.60;99.90;;;;;;4957469;28;20476;-68
2022/11/05 01:16:08;;;;;;;2.50;1.08;;;8.60;99.90;;;;;;4957283;29;20108;-68
2022/11/05 01:18:37;;;;;;;1.92;1.00;;;8.60;99.90;;;;;;4956885;29;20035;-68
2022/11/05 01:21:13;;;;;;;4.20;0.90;;;8.60;99.90;;;;;;4956973;29;20031;-68
2022/11/05 01:23:39;;;;;;;1.10;1.00;;;8.60;99.90;;;;;;4956723;29;20390;-68
2022/11/05 01:26:04;;;;;;;1.10;1.08;;;8.60;99.90;;;;;;4939589;29;20118;-68
2022/11/05 01:28:30;;;;;;;0.98;0.98;;;8.60;99.90;;;;;;4957008;29;20071;-68
2022/11/05 01:30:56;;;;;;;1.00;0.98;;;8.60;99.90;;;;;;4939412;29;20034;-68
2022/11/05 01:33:23;;;;;;;0.80;0.80;;;8.60;99.90;;;;;;4949027;29;20031;-69
2022/11/05 01:35:50;;;;;;;2.35;1.30;;;8.60;99.90;;;;;;4957237;29;20042;-68
2022/11/05 01:38:17;;;;;;;2.28;1.17;;;8.60;99.90;;;;;;4957013;29;20032;-68
2022/11/05 01:40:42;;;;;;;1.67;1.13;;;8.50;99.90;;;;;;4956586;29;20344;-69
2022/11/05 01:43:15;;;;;;;2.53;1.40;;;8.50;99.90;;;;;;4939504;29;20023;-68
2022/11/05 01:45:41;;;;;;;1.65;1.10;;;8.50;99.90;;;;;;4939427;29;20031;-68
2022/11/05 01:48:12;;;;;;;1.33;0.95;;;8.40;99.90;;;;;;4956072;29;20027;-68
2022/11/05 01:50:40;;;;;;;2.75;1.17;;;8.40;99.90;;;;;;4956342;29;20398;-68
2022/11/05 01:53:35;;;;;;;1.73;1.10;;;8.40;99.90;;;;;;4956415;29;20031;-68
2022/11/05 01:56:01;;;;;;;1.05;0.95;;;8.40;99.90;;;;;;4956249;29;20031;-68
2022/11/05 01:58:33;;;;;;;1.10;1.00;;;8.30;99.90;;;;;;4939342;29;20490;-68
2022/11/05 02:00:59;;;;;;;1.38;1.25;;;8.40;99.90;;;;;;4956190;29;20035;-68
2022/11/05 02:03:26;;;;;;;2.00;1.20;;;8.40;99.90;;;;;;4956114;29;20063;-69
2022/11/05 02:05:55;;;;;;;2.70;1.25;;;8.40;99.90;;;;;;4938920;29;20039;-68
2022/11/05 02:08:33;;;;;;;1.42;1.13;;;8.40;99.90;;;;;;4956101;29;20039;-69
2022/11/05 02:10:58;;;;;;;3.13;2.50;;;8.40;99.90;;;;;;4956022;29;20027;-68
2022/11/05 02:13:24;;;;;;;1.83;1.50;;;8.40;99.90;;;;;;4956038;29;20106;-68
2022/11/05 02:16:19;;;;;;;2.20;1.50;;;8.30;99.90;;;;;;4956056;29;20110;-69
2022/11/05 02:19:10;;;;;;;1.40;1.30;;;8.30;99.90;;;;;;4955584;29;20439;-68
2022/11/05 02:22:00;;;;;;;2.42;1.70;;;8.30;99.90;;;;;;4955959;29;20102;-68
2022/11/05 02:24:47;;;;;;;2.03;1.58;;;8.30;99.90;;;;;;4939043;29;20027;-69
2022/11/05 02:27:48;;;;;;;1.98;1.50;;;8.20;99.90;;;;;;4938638;29;20102;-68
2022/11/05 02:30:48;;;;;;;3.10;1.60;;;8.20;99.90;;;;;;4937644;29;20031;-68
2022/11/05 02:33:32;;;;;;;2.47;1.30;;;8.10;99.90;;;;;;4955762;29;20023;-68
2022/11/05 02:36:06;;;;;;;2.65;1.20;;;8.10;99.90;;;;;;4955815;29;20024;-69
2022/11/05 02:38:41;;;;;;;1.55;1.30;;;8.10;99.90;;;;;;4938701;29;20035;-69
2022/11/05 02:41:24;;;;;;;3.50;1.58;;;8.10;99.90;;;;;;4955395;29;20476;-68
2022/11/05 02:44:17;;;;;;;1.88;1.17;;;8.10;99.90;;;;;;4938534;29;20114;-69
2022/11/05 02:46:57;;;;;;;2.00;1.63;;;8.10;99.90;;;;;;4955747;29;20055;-68
2022/11/05 02:49:42;;;;;;;4.55;1.50;;;8.10;99.90;;;;;;4938079;29;20047;-68
2022/11/05 02:52:31;;;;;;;3.95;1.80;;;8.10;99.90;;;;;;4955460;29;20124;-68
2022/11/05 02:55:02;;;;;;;1.77;1.27;;;8.10;99.90;;;;;;4945391;29;20039;-68
2022/11/05 02:57:29;;;;;;;2.45;1.85;;;8.10;99.90;;;;;;4955776;29;20110;-69
2022/11/05 03:00:26;;;;;;;4.25;1.80;;;8.10;99.90;;;;;;4938206;29;20093;-68
2022/11/05 03:02:51;;;;;;;2.20;1.55;;;8.10;99.90;;;;;;4937853;29;20037;-68
2022/11/05 03:05:23;;;;;;;2.65;1.40;;;8.10;99.90;;;;;;4938297;29;20114;-68
2022/11/05 03:07:58;;;;;;;3.60;1.80;;;8.10;99.90;;;;;;4938274;29;20543;-68
2022/11/05 03:10:41;;;;;;;2.35;1.63;;;8.10;99.90;;;;;;4955746;29;20360;-68
2022/11/05 03:13:24;;;;;;;2.78;1.90;;;8.10;99.90;;;;;;4938224;29;20031;-69
2022/11/05 03:15:59;;;;;;;1.48;1.38;;;8.10;99.90;;;;;;4955299;29;20431;-69
2022/11/05 03:18:39;;;;;;;2.97;1.95;;;8.10;99.90;;;;;;4955543;29;20094;-68
2022/11/05 03:21:22;;;;;;;1.83;1.73;;;8.20;99.90;;;;;;4955059;29;20027;-69
2022/11/05 03:23:55;;;;;;;2.70;2.13;;;8.30;99.90;;;;;;4938236;29;20035;-68
2022/11/05 03:26:42;;;;;;;4.50;2.00;;;8.30;99.90;;;;;;4938169;29;20039;-69
2022/11/05 03:29:16;;;;;;;3.17;2.35;;;8.30;99.90;;;;;;4938074;29;20415;-69
2022/11/05 03:31:46;;;;;;;3.00;1.75;;;8.40;99.90;;;;;;4955271;29;20083;-69
2022/11/05 03:34:14;;;;;;;2.47;1.80;;;8.40;99.90;;;;;;4938312;29;20538;-68
2022/11/05 03:36:45;;;;;;;3.05;1.75;;;8.30;99.90;;;;;;4939121;29;20039;-69
2022/11/05 03:39:20;;;;;;;7.60;2.13;;;8.30;99.90;;;;;;4941554;29;20036;-69
2022/11/05 03:41:49;;;;;;;2.88;2.03;;;8.30;99.90;;;;;;4958476;29;20384;-69
2022/11/05 03:44:22;;;;;;;4.10;2.28;;;8.40;99.90;;;;;;4958751;29;20027;-69
2022/11/05 03:46:50;;;;;;;2.35;2.00;;;8.40;99.90;;;;;;4959145;29;20035;-69
2022/11/05 03:49:27;;;;;;;4.70;2.15;;;8.40;99.90;;;;;;4958687;29;20130;-69
2022/11/05 03:51:59;;;;;;;2.60;2.28;;;8.40;99.90;;;;;;4941532;29;20027;-69
2022/11/05 03:54:24;;;;;;;1.92;1.73;;;8.40;99.90;;;;;;4951044;29;20027;-68
2022/11/05 03:56:56;;;;;;;11.13;3.40;;;8.40;99.90;;;;;;4958436;29;20122;-69
2022/11/05 03:59:23;;;;;;;4.35;2.38;;;8.40;99.90;;;;;;4958383;29;20468;-69
2022/11/05 04:01:49;;;;;;;3.45;2.20;;;8.40;99.90;;;;;;4958058;29;20023;-69
2022/11/05 04:04:14;;;;;;;1.83;1.70;;;8.50;99.90;;;;;;4957897;29;20448;-68
2022/11/05 04:14:55;;;;;;;4.75;2.15;;;8.50;99.90;;;;;;4958129;29;20053;-69
2022/11/05 04:17:21;;;;;;;5.50;2.92;;;8.50;99.90;;;;;;4958012;29;20482;-68
2022/11/05 04:25:18;;;;;;;2.88;2.20;;;8.40;99.90;;;;;;4957845;29;20387;-68
2022/11/05 04:27:45;;;;;;;3.35;2.40;;;8.40;99.90;;;;;;4957880;29;20023;-68
2022/11/05 04:30:18;;;;;;;5.95;2.42;;;8.40;99.90;;;;;;4957794;29;20031;-69
2022/11/05 04:33:05;;;;;;;3.85;2.13;;;8.40;99.90;;;;;;4958091;29;20028;-68
2022/11/05 04:35:38;;;;;;;4.00;2.08;;;8.40;99.90;;;;;;4957517;29;20357;-69
2022/11/05 04:38:06;;;;;;;2.95;2.22;;;8.40;99.90;;;;;;4942156;29;20027;-69
2022/11/05 04:40:32;;;;;;;3.37;2.60;;;8.40;99.90;;;;;;4961441;29;20078;-70
2022/11/05 04:42:58;;;;;;;3.85;2.03;;;8.40;99.90;;;;;;4961778;29;20027;-70
2022/11/05 04:45:26;;;;;;;2.65;2.15;;;8.40;99.90;;;;;;4961593;29;20027;-69
2022/11/05 04:47:52;;;;;;;5.50;2.75;;;8.30;99.90;;;;;;4960408;28;20028;-69
2022/11/05 04:50:17;;;;;;;2.83;2.22;;;8.30;99.90;;;;;;4942667;29;20075;-69
2022/11/05 04:52:43;;;;;;;2.90;2.30;;;8.30;99.90;;;;;;4960491;29;20035;-69
2022/11/05 04:55:09;;;;;;;4.82;2.60;;;8.30;99.90;;;;;;4943131;29;20536;-69
2022/11/05 04:57:35;;;;;;;3.55;2.30;;;8.30;99.90;;;;;;4943788;29;20024;-69
2022/11/05 05:00:01;;;;;;;5.63;2.50;;;8.30;99.90;;;;;;4960447;29;20463;-69
2022/11/05 05:02:26;;;;;;;8.35;2.75;;;8.30;99.90;;;;;;4942749;29;20078;-69
2022/11/05 05:04:52;;;;;;;4.38;2.50;;;8.30;99.90;;;;;;4959535;29;20031;-69
2022/11/05 05:07:18;;;;;;;6.45;2.58;;;8.30;99.90;;;;;;4942622;29;20379;-69
2022/11/05 05:09:44;;;;;;;5.93;2.25;;;8.30;99.90;;;;;;4959847;29;20031;-69
2022/11/05 05:12:09;;;;;;;3.70;2.65;;;8.30;99.90;;;;;;4942201;29;20034;-69
2022/11/05 05:14:35;;;;;;;2.78;2.30;;;8.30;99.90;;;;;;4958794;29;20031;-69
2022/11/05 05:17:01;;;;;;;6.28;2.90;;;8.20;99.90;;;;;;4959044;29;20035;-69
2022/11/05 05:19:26;;;;;;;6.68;2.88;;;8.30;99.90;;;;;;4941499;29;20035;-69
2022/11/05 05:21:52;;;;;;;4.10;2.85;;;8.20;99.90;;;;;;4958134;29;20023;-69
2022/11/05 05:24:20;;;;;;;6.13;2.70;;;8.20;99.90;;;;;;4940158;29;20023;-69
2022/11/05 05:26:48;;;;;;;4.28;2.83;;;8.20;99.90;;;;;;4939769;29;20044;-69
2022/11/05 05:29:14;;;;;;;5.70;3.00;;;8.20;99.90;;;;;;4957000;29;20037;-69
2022/11/05 05:31:40;;;;;;;5.93;3.22;;;8.20;99.90;;;;;;4939779;29;20059;-69
2022/11/05 05:34:09;;;;;;;3.28;2.80;;;8.20;99.90;;;;;;4957482;29;20070;-69
2022/11/05 05:36:34;;;;;;;3.77;3.30;;;8.20;99.90;;;;;;4960105;29;20055;-69
2022/11/05 05:39:00;;;;;;;6.53;3.05;;;8.20;99.90;;;;;;4943571;29;20317;-72
2022/11/05 05:41:26;;;;;;;7.25;3.88;;;8.20;99.90;;;;;;4960726;29;20482;-69
2022/11/05 05:43:51;;;;;;;5.43;4.18;;;8.20;99.90;;;;;;4960721;29;20031;-69
2022/11/05 05:46:18;;;;;;;4.45;3.28;;;8.20;99.90;;;;;;4960574;29;20078;-69
2022/11/05 05:48:48;;;;;;;5.28;3.55;;;8.20;99.90;;;;;;4959894;29;20110;-69
2022/11/05 05:51:14;;;;;;;4.78;3.58;;;8.20;99.90;;;;;;4959830;29;20023;-69
2022/11/05 05:53:40;;;;;;;4.07;3.50;;;8.20;99.90;;;;;;4941207;29;20179;-69
2022/11/05 05:56:06;;;;;;;5.22;3.15;;;8.20;99.90;;;;;;4958394;29;20034;-69
2022/11/05 05:58:35;;;;;;;4.75;3.55;;;8.20;99.90;;;;;;4940998;29;20035;-69
2022/11/05 06:01:21;;;;;;;4.05;3.00;;;8.20;99.90;;;;;;4939978;29;20027;-69
2022/11/05 06:03:49;;;;;;;3.83;3.25;;;8.20;99.90;;;;;;4939792;29;20061;-69
2022/11/05 06:06:20;;;;;;;5.85;4.25;;;8.10;99.90;;;;;;4957635;29;20031;-69
2022/11/05 06:08:46;;;;;;;5.88;3.65;;;8.10;99.90;;;;;;4957762;29;20110;-69
2022/11/05 06:11:12;;;;;;;4.97;3.53;;;8.10;99.90;;;;;;4939377;29;20035;-69
2022/11/05 06:13:37;;;;;;;5.53;4.20;;;8.20;99.90;;;;;;4957097;29;20034;-69
2022/11/05 06:16:05;;;;;;;7.22;3.85;;;8.20;99.90;;;;;;4956746;29;20023;-69
2022/11/05 06:18:32;;;;;;;4.38;3.85;;;8.30;99.90;;;;;;4956825;29;20079;-69
2022/11/05 06:21:02;;;;;;;5.90;4.00;;;8.30;99.90;;;;;;4956742;29;20031;-69
2022/11/05 06:23:32;;;;;;;4.88;3.95;;;8.30;99.90;;;;;;4938970;29;20097;-69
2022/11/05 06:26:00;;;;;;;5.82;4.10;;;8.30;99.90;;;;;;4939203;29;20162;-69
2022/11/05 06:28:26;;;;;;;6.78;4.20;;;8.30;99.90;;;;;;4939605;29;20169;-69
2022/11/05 06:30:51;;;;;;;5.68;3.70;;;8.40;99.90;;;;;;4957614;29;20063;-72
2022/11/05 06:33:17;;;;;;;8.85;4.80;;;8.40;99.90;;;;;;4940210;29;20509;-71
2022/11/05 06:35:42;;;;;;;5.03;3.78;;;8.50;99.90;;;;;;4938840;29;20034;-71
2022/11/05 06:38:08;;;;;;;6.93;4.28;;;8.40;99.90;;;;;;4939033;29;20121;-71
2022/11/05 06:40:34;;;;;;;5.53;3.72;;;8.50;99.90;;;;;;4939670;29;20118;-72
2022/11/05 06:42:59;;;;;;;6.68;3.58;;;8.50;99.90;;;;;;4956967;29;20027;-73
2022/11/05 06:45:25;;;;;;;4.43;3.60;;;8.50;99.90;;;;;;4939468;29;20027;-71
2022/11/05 06:47:58;;;;;;;7.50;3.90;;;8.50;99.90;;;;;;4956889;29;20496;-72
2022/11/05 06:50:27;;;;;;;7.72;3.92;;;8.50;99.90;;;;;;4957238;29;20047;-72
2022/11/05 06:53:00;;;;;;;5.00;3.58;;;8.50;99.90;;;;;;4956412;29;20027;-71
2022/11/05 06:55:28;;;;;;;6.57;4.10;;;8.50;99.90;;;;;;4939773;29;20467;-71
2022/11/05 06:57:54;;;;;;;5.07;3.20;;;8.60;99.90;;;;;;4939432;29;20020;-72
2022/11/05 07:00:20;;;;;;;5.05;3.30;;;8.60;99.90;;;;;;4956900;29;20463;-71
2022/11/05 07:02:46;;;;;;;6.63;3.53;;;8.60;99.90;;;;;;4938892;29;20074;-70
2022/11/05 07:05:13;;;;;;;5.28;3.60;;;8.60;99.90;;;;;;4938819;29;20032;-71
2022/11/05 07:07:40;;;;;;;4.20;3.80;;;8.60;99.90;;;;;;4939461;29;20027;-72
2022/11/05 07:10:09;;;;;;;5.25;3.53;;;8.70;99.90;;;;;;4956755;29;20042;-72
2022/11/05 07:12:35;;;;;;;4.88;3.70;;;8.60;99.90;;;;;;4941942;29;20027;-73
2022/11/05 07:15:01;;;;;;;6.50;4.22;;;8.70;99.90;;;;;;4943706;29;20486;-72
2022/11/05 07:17:26;;;;;;;4.72;3.42;;;8.70;99.90;;;;;;4943563;29;20031;-71
2022/11/05 07:19:52;;;;;;;4.63;3.90;;;8.70;99.90;;;;;;4962837;29;20112;-73
2022/11/05 07:22:18;;;;;;;6.15;4.20;;;8.70;99.90;;;;;;4943342;29;20376;-71
2022/11/05 07:24:46;;;;;;;7.38;4.40;;;8.70;99.90;;;;;;4960095;29;20378;-72
2022/11/05 07:27:12;;;;;;;5.00;3.88;;;8.70;99.90;;;;;;4960250;29;20062;-72
2022/11/05 07:29:37;;;;;;;5.45;3.97;;;8.80;99.90;;;;;;4943082;29;20486;-71
2022/11/05 07:32:04;;;;;;;5.80;4.18;;;8.80;99.90;;;;;;4942910;29;20091;-71
2022/11/05 07:34:29;;;;;;;5.90;3.70;;;8.90;99.90;;;;;;4959623;29;20062;-71
2022/11/05 07:36:55;;;;;;;8.55;3.53;;;8.90;99.90;;;;;;4942416;29;20028;-71
2022/11/05 07:39:20;;;;;;;16.15;5.03;;;9.00;99.90;;;;;;4942666;29;20031;-70
2022/11/05 07:41:46;;;;;;;7.07;4.18;;;9.00;99.90;;;;;;4959091;29;20031;-71
2022/11/05 07:44:13;;;;;;;7.22;3.85;;;9.10;99.90;;;;;;4942191;29;20031;-71
2022/11/05 07:46:40;;;;;;;7.63;3.90;;;9.10;99.90;;;;;;4942427;29;20065;-68
2022/11/05 07:49:06;;;;;;;5.40;3.75;;;9.20;99.90;;;;;;4959249;29;20075;-71
2022/11/05 07:51:32;;;;;;;6.43;3.78;;;9.30;99.90;;;;;;4958849;29;20046;-71
2022/11/05 07:53:58;;;;;;;5.32;3.45;;;9.30;99.90;;;;;;4942029;29;20091;-72
2022/11/05 07:56:23;;;;;;;6.03;3.60;;;9.40;99.90;;;;;;4941963;29;20494;-70
2022/11/05 07:58:49;;;;;;;6.32;4.15;;;9.50;99.90;;;;;;4942390;29;20130;-70
2022/11/05 08:01:15;;;;;;;7.03;3.47;;;9.60;99.90;;;;;;4941740;29;20027;-70
2022/11/05 08:03:40;;;;;;;4.68;3.47;;;9.80;99.90;;;;;;4941458;29;20027;-71
2022/11/05 08:06:06;;;;;;;4.47;3.45;;;10.10;99.90;;;;;;4941867;29;20162;-72
2022/11/05 08:08:32;;;;;;;7.20;3.33;;;10.30;99.90;;;;;;4958948;29;20530;-72
2022/11/05 08:11:05;;;;;;;4.80;2.88;;;10.50;99.90;;;;;;4941375;29;20027;-72
2022/11/05 08:13:32;;;;;;;4.30;3.00;;;10.50;99.90;;;;;;4958248;29;20424;-71
2022/11/05 08:15:58;;;;;;;5.28;3.00;;;10.60;99.90;;;;;;4958255;29;20027;-72
2022/11/05 08:18:30;;;;;;;5.00;3.63;;;10.70;99.90;;;;;;4957954;29;20039;-70
2022/11/05 08:22:43;;;;;;;8.20;3.15;;;10.70;99.90;;;;;;5112418;27;20380;-73
2022/11/05 08:25:10;;;;;;;5.05;3.00;;;10.60;99.90;;;;;;5128551;28;20052;-72
2022/11/05 08:27:36;;;;;;;6.38;3.00;;;10.50;99.90;;;;;;5112661;28;20055;-71
2022/11/05 08:30:04;;;;;;;4.50;3.00;;;10.50;99.90;;;;;;5112884;28;20028;-72
2022/11/05 08:32:30;;;;;;;6.05;2.80;;;10.50;99.90;;;;;;5128706;28;20465;-72
2022/11/05 08:34:55;;;;;;;5.38;2.78;;;10.50;99.90;;;;;;5128761;28;20020;-71
2022/11/05 08:37:21;;;;;;;4.90;2.72;;;10.60;99.90;;;;;;5128687;28;20024;-71
2022/11/05 08:39:47;;;;;;;3.88;2.67;;;10.70;99.90;;;;;;5128684;28;20052;-72
2022/11/05 08:42:13;;;;;;;3.35;2.67;;;10.70;99.90;;;;;;5112039;28;20067;-72
2022/11/05 08:44:38;;;;;;;3.75;2.78;;;10.80;99.90;;;;;;5127478;28;20035;-72
2022/11/05 08:47:04;;;;;;;4.47;2.97;;;11.00;99.90;;;;;;5111593;28;20383;-72
2022/11/05 08:49:30;;;;;;;3.83;2.92;;;11.00;99.90;;;;;;5111507;28;20024;-72
2022/11/05 08:51:56;;;;;;;5.80;3.13;;;11.00;99.90;;;;;;5127209;28;20035;-72
2022/11/05 08:54:21;;;;;;;3.42;2.95;;;10.90;99.90;;;;;;5111907;28;20038;-73
2022/11/05 08:56:47;;;;;;;3.58;3.28;;;10.90;99.90;;;;;;5127563;28;20035;-72
2022/11/05 08:59:12;;;;;;;5.50;3.08;;;10.80;99.90;;;;;;5129299;28;20027;-73
2022/11/05 09:01:38;;;;;;;3.60;2.97;;;10.70;99.90;;;;;;5114124;28;20455;-73
2022/11/05 09:04:04;;;;;;;5.50;2.80;;;10.80;99.90;;;;;;5111793;28;20028;-73
2022/11/05 09:06:29;;;;;;;7.10;3.30;;;10.90;99.90;;;;;;5127058;28;20027;-73
2022/11/05 09:08:55;;;;;;;5.63;2.92;;;11.00;99.90;;;;;;5111774;28;20024;-73
2022/11/05 09:11:21;;;;;;;6.20;3.05;;;11.00;99.90;;;;;;5111389;28;20031;-72
2022/11/05 09:13:46;;;;;;;8.13;3.42;;;11.00;99.90;;;;;;5127266;28;20464;-73
2022/11/05 09:16:23;;;;;;;6.78;3.55;;;11.10;99.90;;;;;;5111518;28;20028;-73
2022/11/05 09:18:49;;;;;;;3.50;3.03;;;10.90;99.90;;;;;;5111173;28;20028;-74
2022/11/05 09:21:18;;;;;;;6.05;3.25;;;11.00;99.90;;;;;;5110803;28;20051;-69
2022/11/05 09:23:47;;;;;;;7.32;3.40;;;11.10;99.90;;;;;;5110334;28;20468;-63
2022/11/05 09:26:13;;;;;;;4.75;3.25;;;11.30;99.90;;;;;;5126479;28;20039;-63
2022/11/05 09:28:39;;;;;;;4.70;2.92;;;11.40;99.90;;;;;;5111013;28;20035;-74
2022/11/05 09:31:07;;;;;;;4.40;4.00;;;11.40;99.90;;;;;;5126832;28;20038;-73
2022/11/05 09:33:34;;;;;;;8.15;4.30;;;11.40;99.90;;;;;;5115714;28;20020;-73
2022/11/05 09:36:00;;;;;;;4.88;3.45;;;11.40;99.90;;;;;;5097243;28;20028;-74
2022/11/05 09:38:26;;;;;;;4.22;3.80;;;11.50;99.90;;;;;;5097493;28;20464;-74
2022/11/05 09:41:02;;;;;;;4.50;4.03;;;11.40;99.90;;;;;;5113038;28;20028;-74
2022/11/05 09:43:40;;;;;;;6.95;4.25;;;11.40;99.90;;;;;;5112920;28;20489;-74
2022/11/05 09:46:38;;;;;;;7.63;4.28;;;11.30;99.90;;;;;;5113183;28;20055;-74
2022/11/05 09:49:09;;;;;;;6.35;4.65;;;11.30;99.90;;;;;;5081666;28;20042;-74
2022/11/05 09:51:36;;;;;;;4.95;3.92;;;11.40;99.90;;;;;;5096972;28;20028;-73
2022/11/05 09:54:03;;;;;;;5.30;4.05;;;11.40;99.90;;;;;;5112426;28;20115;-74
2022/11/05 09:56:33;;;;;;;7.80;4.22;;;11.30;99.90;;;;;;5113261;28;20105;-73
2022/11/05 09:59:11;;;;;;;6.97;4.40;;;11.20;99.90;;;;;;5096814;28;20047;-74
2022/11/05 10:01:37;;;;;;;5.28;4.03;;;11.00;99.90;;;;;;5097724;28;20038;-74
2022/11/05 10:04:11;;;;;;;7.38;4.63;;;11.10;99.90;;;;;;5097160;28;20032;-74
2022/11/05 10:06:54;;;;;;;6.38;4.32;;;11.00;99.90;;;;;;5097028;28;20026;-74
2022/11/05 10:09:25;;;;;;;7.45;4.60;;;10.80;99.90;;;;;;5112017;28;20031;-74
2022/11/05 10:11:56;;;;;;;7.38;4.65;;;10.90;99.90;;;;;;5112814;28;20055;-74
2022/11/05 10:14:37;;;;;;;7.55;4.90;;;10.80;99.90;;;;;;5096660;28;20031;-74
2022/11/05 10:17:21;;;;;;;8.77;4.90;;;10.90;99.90;;;;;;5096574;28;20048;-74
2022/11/05 10:20:06;;;;;;;7.32;5.35;;;10.80;99.90;;;;;;5096290;28;20046;-74
2022/11/05 10:22:32;;;;;;;8.52;5.03;;;10.90;99.90;;;;;;5111771;28;20052;-74
2022/11/05 10:24:58;;;;;;;9.77;5.53;;;10.80;99.90;;;;;;5095925;28;20360;-73
2022/11/05 10:27:32;;;;;;;6.47;5.40;;;10.80;99.90;;;;;;5112254;28;20028;-74
2022/11/05 10:29:58;;;;;;;9.25;5.75;;;10.80;99.90;;;;;;5112387;28;20111;-73
2022/11/05 10:32:28;;;;;;;11.85;6.57;;;10.80;99.90;;;;;;5098474;28;20063;-73
2022/11/05 10:34:58;;;;;;;10.23;5.47;;;10.80;99.90;;;;;;5098806;28;20035;-72
2022/11/05 10:37:25;;;;;;;9.20;5.35;;;10.80;99.90;;;;;;5113993;28;20046;-73
2022/11/05 10:39:51;;;;;;;10.13;5.80;;;10.70;99.90;;;;;;5112577;28;20467;-73
2022/11/05 10:42:23;;;;;;;8.18;5.93;;;10.60;99.90;;;;;;5111804;28;20046;-74
2022/11/05 10:44:52;;;;;;;11.88;5.70;;;10.60;99.90;;;;;;5111147;28;20115;-74
2022/11/05 10:47:31;;;;;;;11.75;5.80;;;10.50;99.90;;;;;;5112700;28;20039;-74
2022/11/05 10:50:03;;;;;;;8.43;5.72;;;10.50;99.90;;;;;;5113405;28;20368;-74
2022/11/05 10:52:41;;;;;;;10.55;6.32;;;10.40;99.90;;;;;;5113474;28;20111;-74
2022/11/05 10:55:20;;;;;;;12.38;6.00;;;10.40;99.90;;;;;;5099011;28;20044;-73
2022/11/05 10:57:46;;;;;;;;;;;10.30;99.90;;;;;;5115803;28;20021;-72
2022/11/05 11:00:15;;;;;;;8.60;5.68;;;10.30;99.90;;;;;;5099712;28;19910;-76
2022/11/05 11:02:53;;;;;;;10.57;6.03;;;10.30;99.90;;;;;;5116061;28;20036;-75
2022/11/05 11:05:31;;;;;;;10.82;6.30;;;10.30;99.90;;;;;;5100691;28;20095;-73
2022/11/05 11:08:20;;;;;;;9.27;6.28;;;10.30;99.90;;;;;;5099692;28;20099;-75
2022/11/05 11:10:55;;;;;;;9.77;6.85;;;10.20;99.90;;;;;;5115090;28;20436;-74
2022/11/05 11:13:24;;;;;;;10.68;7.15;;;10.20;99.90;;;;;;5098978;28;20095;-74
2022/11/05 11:15:50;;;;;;;13.87;7.13;;;10.20;99.90;;;;;;5099269;28;20024;-75
2022/11/05 11:18:29;;;;;;;8.75;6.80;;;10.10;99.90;;;;;;5114358;28;20032;-76
2022/11/05 11:21:25;;;;;;;10.10;6.40;;;10.10;99.90;;;;;;5097756;28;20265;-75
2022/11/05 11:24:02;;;;;;;9.60;6.43;;;10.10;99.90;;;;;;5096659;28;20087;-75
2022/11/05 11:26:35;;;;;;;11.02;6.47;;;10.10;99.90;;;;;;5097765;28;20028;-79
2022/11/05 11:29:13;;;;;;;9.13;6.60;;;10.10;99.90;;;;;;5114025;28;20063;-74
2022/11/05 11:31:39;;;;;;;9.70;6.38;;;10.10;99.90;;;;;;5114131;28;20091;-75
2022/11/05 11:34:37;;;;;;;8.60;6.68;;;10.20;99.90;;;;;;5098142;28;20028;-74
2022/11/05 11:37:26;;;;;;;10.15;6.78;;;10.20;99.90;;;;;;5088551;28;20036;-75
2022/11/05 11:39:56;;;;;;;9.60;7.13;;;10.20;99.90;;;;;;5113990;28;20032;-74
2022/11/05 11:42:35;;;;;;;7.78;6.32;;;10.20;99.90;;;;;;5098439;28;20020;-75
2022/11/05 11:45:13;;;;;;;10.45;7.10;;;10.20;99.90;;;;;;5113868;28;20028;-75
2022/11/05 11:47:43;;;;;;;8.50;6.43;;;10.20;99.90;;;;;;5096494;28;20528;-74
2022/11/05 11:50:37;;;;;;;8.20;6.55;;;10.30;99.90;;;;;;5113783;28;20105;-76
2022/11/05 11:53:33;;;;;;;8.23;6.85;;;10.30;99.90;;;;;;5098978;28;20024;-76
2022/11/05 11:56:01;;;;;;;8.52;6.75;;;10.20;99.90;;;;;;5100541;28;20102;-78
2022/11/05 11:58:48;;;;;;;10.82;7.05;;;10.30;99.90;;;;;;5116366;28;20031;-75
2022/11/05 12:01:39;;;;;;;13.15;7.60;;;10.30;99.90;;;;;;5099576;28;20429;-75
2022/11/05 12:04:26;;;;;;;7.68;6.45;;;10.20;99.90;;;;;;5116508;28;20119;-76
2022/11/05 12:07:16;;;;;;;10.68;6.43;;;10.20;99.90;;;;;;5097749;28;20034;-75
2022/11/05 12:10:08;;;;;;;10.32;6.57;;;10.30;99.90;;;;;;5114265;28;20024;-75
2022/11/05 12:13:02;;;;;;;9.10;6.40;;;10.30;99.90;;;;;;5100285;28;20055;-75
2022/11/05 12:15:47;;;;;;;9.32;5.78;;;10.40;99.90;;;;;;5099881;28;20056;-77
2022/11/05 12:18:31;;;;;;;9.25;5.85;;;10.40;99.90;;;;;;5101288;28;20398;-76
2022/11/05 12:21:34;;;;;;;11.32;6.47;;;10.40;99.90;;;;;;5099955;28;20048;-75
2022/11/05 12:24:14;;;;;;;9.50;5.75;;;10.40;99.90;;;;;;5099076;28;20047;-74
2022/11/05 12:27:11;;;;;;;7.68;6.22;;;10.40;99.90;;;;;;5097061;28;20486;-75
2022/11/05 12:29:48;;;;;;;11.38;6.85;;;10.40;99.90;;;;;;5098133;28;20024;-74
2022/11/05 12:32:25;;;;;;;11.75;6.68;;;10.50;99.90;;;;;;5113658;28;20035;-75
2022/11/05 12:35:12;;;;;;;10.15;6.85;;;10.40;99.90;;;;;;5112982;28;20024;-73
2022/11/05 12:37:38;;;;;;;8.93;6.75;;;10.50;99.90;;;;;;5112193;28;20035;-73
2022/11/05 12:40:28;;;;;;;9.88;5.57;;;10.50;99.90;;;;;;5097741;28;20024;-75
2022/11/05 12:43:18;;;;;;;8.13;5.82;;;10.50;99.90;;;;;;5098200;28;20036;-75
2022/11/05 12:46:05;;;;;;;9.18;5.43;;;10.50;99.90;;;;;;5096094;28;20440;-76
2022/11/05 12:49:00;;;;;;;6.35;5.05;;;10.60;99.90;;;;;;5111814;28;20025;-72
2022/11/05 12:51:28;;;;;;;8.65;5.40;;;10.60;99.90;;;;;;5094526;28;20062;-73
2022/11/05 12:54:09;;;;;;;8.70;5.93;;;10.60;99.90;;;;;;5112362;28;20028;-74
2022/11/05 12:56:42;;;;;;;4.70;4.03;;;10.70;99.90;;;;;;5097179;28;20036;-75
2022/11/05 12:59:23;;;;;;;6.47;4.32;;;10.70;99.90;;;;;;5113755;28;20051;-74
2022/11/05 13:01:59;;;;;;;5.20;3.80;;;10.70;99.90;;;;;;5113256;28;20052;-74
2022/11/05 13:04:46;;;;;;;5.15;3.20;;;10.70;99.90;;;;;;5097449;28;20085;-76
2022/11/05 13:07:16;;;;;;;4.53;3.05;;;10.80;99.90;;;;;;5111479;28;20036;-75
2022/11/05 13:09:54;;;;;;;5.13;3.45;;;10.80;99.90;;;;;;5097620;28;20024;-74
2022/11/05 13:12:24;;;;;;;3.80;2.95;;;10.80;99.90;;;;;;5113476;28;20028;-73
2022/11/05 13:14:56;;;;;;;3.58;2.75;;;10.90;99.90;;;;;;5113324;28;20417;-74
2022/11/05 13:17:27;;;;;;;3.78;2.53;;;10.90;99.90;;;;;;5113265;28;20085;-73
2022/11/05 13:20:13;;;;;;;3.20;2.28;;;10.90;99.90;;;;;;5097094;28;20031;-73
2022/11/05 13:22:52;;;;;;;3.22;2.88;;;10.90;99.90;;;;;;5099442;28;20051;-73
2022/11/05 13:25:24;;;;;;;2.88;2.50;;;11.00;99.90;;;;;;5096823;28;20032;-75
2022/11/05 13:28:15;;;;;;;4.38;2.78;;;11.00;99.90;;;;;;5117259;28;20031;-75
2022/11/05 13:30:51;;;;;;;5.13;2.80;;;11.00;99.90;;;;;;5101646;28;20035;-76
2022/11/05 13:33:24;;;;;;;3.50;2.35;;;10.90;99.90;;;;;;5116351;28;20046;-74
2022/11/05 13:39:05;;;;;;;2.90;2.60;;;10.90;99.90;;;;;;5099946;28;20039;-75
2022/11/05 13:41:50;;;;;;;2.63;2.40;;;10.90;99.90;;;;;;5116524;28;20035;-78
2022/11/05 13:44:38;;;;;;;3.85;2.40;;;10.80;99.90;;;;;;5114185;28;20038;-75
2022/11/05 13:47:32;;;;;;;5.97;3.15;;;10.90;99.90;;;;;;5096917;28;20020;-74
2022/11/05 13:50:22;;;;;;;3.13;2.58;;;10.90;99.90;;;;;;5097090;28;20035;-75
2022/11/05 13:53:01;;;;;;;3.70;2.67;;;10.80;99.90;;;;;;5113175;28;20093;-73
2022/11/05 13:55:45;;;;;;;9.40;3.47;;;10.80;99.90;;;;;;5113244;28;20107;-73
2022/11/05 13:58:29;;;;;;;3.63;2.58;;;10.80;99.90;;;;;;5097407;28;20366;-74
2022/11/05 14:01:07;;;;;;;3.35;2.90;;;10.80;99.90;;;;;;5100042;28;20036;-73